Augusta, Ohio
Current Conditions -  °F | °C
As of 6:53 AM on Friday 28 Nov 2014 (Local Time) from KPHD Reporting Station
Clear Clear  
Wind Chill: 22°   Ceiling: Unl
Heat Index: 22°   Visibility: 10mi
Dew Point: 10°   Wind: 3mph
Humidity: 60%   Direction: 300°WNW
Pressure: 30.35"   Gusts: NA
Location:  40.69°N, 81.02°W
Report Text: KPHD 281153Z AUTO 30003KT 10SM CLR M06/M12 A3035 RMK AO2 SLP291 60000 70001 T10561122 11011 21056 51015
Loading
Personal Weather Stations






























Interactive Weather Map New forecast layout! Learn more

10-Day Weather Forecast

Advertisements
Track Severe Weather on mobile